sensor_id;sensor_type;location;lat;lon;timestamp;pressure;altitude;pressure_sealevel;temperature;humidity
42003;BME280;27693;50.506;30.832;2022-09-09T00:01:00;100425.52;;;9.18;64.42
42003;BME280;27693;50.506;30.832;2022-09-09T00:03:24;100426.83;;;9.01;64.99
42003;BME280;27693;50.506;30.832;2022-09-09T00:04:34;100419.98;;;8.99;65.23
42003;BME280;27693;50.506;30.832;2022-09-09T00:07:15;100414.80;;;8.99;65.26
42003;BME280;27693;50.506;30.832;2022-09-09T00:08:20;100410.78;;;8.87;65.64
42003;BME280;27693;50.506;30.832;2022-09-09T00:09:26;100414.15;;;8.90;65.75
42003;BME280;27693;50.506;30.832;2022-09-09T00:10:35;100415.91;;;8.90;65.54
42003;BME280;27693;50.506;30.832;2022-09-09T00:11:50;100414.20;;;8.89;65.59
42003;BME280;27693;50.506;30.832;2022-09-09T00:14:26;100415.19;;;8.85;65.82
42003;BME280;27693;50.506;30.832;2022-09-09T00:16:46;100414.38;;;8.83;65.90
42003;BME280;27693;50.506;30.832;2022-09-09T00:17:56;100412.66;;;8.82;65.92
42003;BME280;27693;50.506;30.832;2022-09-09T00:19:15;100410.02;;;8.83;65.91
42003;BME280;27693;50.506;30.832;2022-09-09T00:20:20;100407.41;;;8.85;65.65
42003;BME280;27693;50.506;30.832;2022-09-09T00:21:43;100417.09;;;8.78;65.96
42003;BME280;27693;50.506;30.832;2022-09-09T00:22:47;100412.77;;;8.78;65.94
42003;BME280;27693;50.506;30.832;2022-09-09T00:23:55;100413.84;;;8.70;66.30
42003;BME280;27693;50.506;30.832;2022-09-09T00:25:09;100409.36;;;8.76;66.11
42003;BME280;27693;50.506;30.832;2022-09-09T00:26:34;100415.31;;;8.80;65.80
42003;BME280;27693;50.506;30.832;2022-09-09T00:27:42;100419.61;;;8.81;65.93
42003;BME280;27693;50.506;30.832;2022-09-09T00:31:27;100419.63;;;8.79;65.86
42003;BME280;27693;50.506;30.832;2022-09-09T00:32:30;100423.05;;;8.82;65.78
42003;BME280;27693;50.506;30.832;2022-09-09T00:33:34;100417.20;;;8.73;66.35
42003;BME280;27693;50.506;30.832;2022-09-09T00:34:46;100419.80;;;8.73;66.24
42003;BME280;27693;50.506;30.832;2022-09-09T00:35:58;100421.61;;;8.71;66.37
42003;BME280;27693;50.506;30.832;2022-09-09T00:37:02;100416.66;;;8.62;66.65
42003;BME280;27693;50.506;30.832;2022-09-09T00:38:13;100418.36;;;8.63;66.82
42003;BME280;27693;50.506;30.832;2022-09-09T00:39:37;100416.66;;;8.62;66.81
42003;BME280;27693;50.506;30.832;2022-09-09T00:43:35;100422.56;;;8.67;66.50
42003;BME280;27693;50.506;30.832;2022-09-09T00:44:35;100420.30;;;8.55;66.98
42003;BME280;27693;50.506;30.832;2022-09-09T00:56:25;100425.55;;;8.52;67.16
42003;BME280;27693;50.506;30.832;2022-09-09T00:57:35;100426.42;;;8.52;67.06
42003;BME280;27693;50.506;30.832;2022-09-09T00:58:34;100431.55;;;8.54;67.07
42003;BME280;27693;50.506;30.832;2022-09-09T00:59:56;100426.25;;;8.58;66.50
42003;BME280;27693;50.506;30.832;2022-09-09T01:01:08;100425.42;;;8.58;66.87
42003;BME280;27693;50.506;30.832;2022-09-09T01:02:25;100428.90;;;8.57;66.83
42003;BME280;27693;50.506;30.832;2022-09-09T01:03:40;100428.13;;;8.53;66.97
42003;BME280;27693;50.506;30.832;2022-09-09T01:04:42;100430.73;;;8.52;66.86
42003;BME280;27693;50.506;30.832;2022-09-09T01:05:51;100431.72;;;8.47;67.12
42003;BME280;27693;50.506;30.832;2022-09-09T01:06:56;100439.63;;;8.41;67.37
42003;BME280;27693;50.506;30.832;2022-09-09T01:08:01;100432.69;;;8.42;67.46
42003;BME280;27693;50.506;30.832;2022-09-09T01:10:48;100435.38;;;8.39;67.57
42003;BME280;27693;50.506;30.832;2022-09-09T01:12:59;100435.80;;;8.22;68.30
42003;BME280;27693;50.506;30.832;2022-09-09T01:15:27;100432.31;;;8.23;68.23
42003;BME280;27693;50.506;30.832;2022-09-09T01:16:31;100440.83;;;8.28;68.07
42003;BME280;27693;50.506;30.832;2022-09-09T01:18:51;100438.08;;;8.34;67.71
42003;BME280;27693;50.506;30.832;2022-09-09T01:20:04;100433.66;;;8.38;67.40
42003;BME280;27693;50.506;30.832;2022-09-09T01:21:39;100441.45;;;8.38;67.61
42003;BME280;27693;50.506;30.832;2022-09-09T01:22:53;100431.13;;;8.36;67.81
42003;BME280;27693;50.506;30.832;2022-09-09T01:26:45;100438.08;;;8.34;67.73
42003;BME280;27693;50.506;30.832;2022-09-09T01:27:51;100446.73;;;8.33;67.75
42003;BME280;27693;50.506;30.832;2022-09-09T01:28:55;100437.19;;;8.35;67.91
42003;BME280;27693;50.506;30.832;2022-09-09T01:29:59;100442.48;;;8.30;67.93
42003;BME280;27693;50.506;30.832;2022-09-09T01:31:06;100442.44;;;8.32;67.59
42003;BME280;27693;50.506;30.832;2022-09-09T01:33:41;100443.63;;;8.19;68.58
42003;BME280;27693;50.506;30.832;2022-09-09T01:34:43;100444.36;;;8.24;68.21
42003;BME280;27693;50.506;30.832;2022-09-09T01:35:55;100446.01;;;8.28;68.34
42003;BME280;27693;50.506;30.832;2022-09-09T01:37:08;100444.25;;;8.28;68.24
42003;BME280;27693;50.506;30.832;2022-09-09T01:38:12;100446.16;;;8.22;68.37
42003;BME280;27693;50.506;30.832;2022-09-09T01:39:16;100441.13;;;8.15;68.79
42003;BME280;27693;50.506;30.832;2022-09-09T01:40:20;100431.65;;;8.14;68.55
42003;BME280;27693;50.506;30.832;2022-09-09T01:41:23;100436.83;;;8.14;68.75
42003;BME280;27693;50.506;30.832;2022-09-09T01:42:30;100436.83;;;8.14;68.65
42003;BME280;27693;50.506;30.832;2022-09-09T01:43:33;100445.55;;;8.10;68.82
42003;BME280;27693;50.506;30.832;2022-09-09T01:44:36;100436.05;;;8.11;68.90
42003;BME280;27693;50.506;30.832;2022-09-09T01:45:41;100440.31;;;8.13;68.79
42003;BME280;27693;50.506;30.832;2022-09-09T01:46:44;100449.84;;;8.13;68.91
42003;BME280;27693;50.506;30.832;2022-09-09T01:47:50;100429.46;;;7.97;69.26
42003;BME280;27693;50.506;30.832;2022-09-09T01:49:06;100429.46;;;7.97;69.26
42003;BME280;27693;50.506;30.832;2022-09-09T01:50:13;100430.09;;;8.07;69.02
42003;BME280;27693;50.506;30.832;2022-09-09T01:51:16;100433.51;;;8.09;69.14
42003;BME280;27693;50.506;30.832;2022-09-09T01:52:19;100429.12;;;8.11;68.79
42003;BME280;27693;50.506;30.832;2022-09-09T01:53:23;100431.80;;;8.08;68.90
42003;BME280;27693;50.506;30.832;2022-09-09T01:54:29;100430.15;;;8.04;69.12
42003;BME280;27693;50.506;30.832;2022-09-09T01:55:42;100424.97;;;8.04;68.99
42003;BME280;27693;50.506;30.832;2022-09-09T02:03:38;100433.92;;;7.91;69.74
42003;BME280;27693;50.506;30.832;2022-09-09T02:04:52;100428.83;;;7.88;69.86
42003;BME280;27693;50.506;30.832;2022-09-09T02:07:16;100425.27;;;7.92;69.70
42003;BME280;27693;50.506;30.832;2022-09-09T02:09:39;100426.13;;;7.92;69.65
42003;BME280;27693;50.506;30.832;2022-09-09T02:10:55;100432.22;;;7.90;69.87
42003;BME280;27693;50.506;30.832;2022-09-09T02:12:16;100435.67;;;7.90;69.71
42003;BME280;27693;50.506;30.832;2022-09-09T02:13:21;100422.67;;;7.92;69.81
42003;BME280;27693;50.506;30.832;2022-09-09T02:14:27;100428.00;;;7.86;70.10
42003;BME280;27693;50.506;30.832;2022-09-09T02:15:35;100430.68;;;7.82;70.03
42003;BME280;27693;50.506;30.832;2022-09-09T02:16:48;100430.55;;;7.87;70.21
42003;BME280;27693;50.506;30.832;2022-09-09T02:17:49;100433.14;;;7.87;69.75
42003;BME280;27693;50.506;30.832;2022-09-09T02:19:15;100427.90;;;7.90;69.87
42003;BME280;27693;50.506;30.832;2022-09-09T02:20:18;100433.23;;;7.84;70.02
42003;BME280;27693;50.506;30.832;2022-09-09T02:21:30;100434.01;;;7.88;70.06
42003;BME280;27693;50.506;30.832;2022-09-09T02:22:35;100429.77;;;7.83;70.01
42003;BME280;27693;50.506;30.832;2022-09-09T02:23:41;100435.92;;;7.79;70.11
42003;BME280;27693;50.506;30.832;2022-09-09T02:24:46;100434.06;;;7.84;70.09
42003;BME280;27693;50.506;30.832;2022-09-09T02:25:51;100427.13;;;7.87;70.03
42003;BME280;27693;50.506;30.832;2022-09-09T02:26:58;100430.45;;;7.92;69.86
42003;BME280;27693;50.506;30.832;2022-09-09T02:28:06;100437.39;;;7.90;69.89
42003;BME280;27693;50.506;30.832;2022-09-09T02:29:31;100429.51;;;7.96;69.64
42003;BME280;27693;50.506;30.832;2022-09-09T02:30:19;100436.41;;;7.95;69.56
42003;BME280;27693;50.506;30.832;2022-09-09T02:31:25;100437.38;;;7.91;69.77
42003;BME280;27693;50.506;30.832;2022-09-09T02:32:28;100433.14;;;7.87;69.88
42003;BME280;27693;50.506;30.832;2022-09-09T02:33:37;100439.25;;;7.84;69.89
42003;BME280;27693;50.506;30.832;2022-09-09T02:34:47;100444.37;;;7.88;69.80
42003;BME280;27693;50.506;30.832;2022-09-09T02:35:46;100447.80;;;7.88;69.94
42003;BME280;27693;50.506;30.832;2022-09-09T02:36:53;100439.97;;;7.91;69.72
42003;BME280;27693;50.506;30.832;2022-09-09T02:37:59;100445.99;;;7.92;69.59
42003;BME280;27693;50.506;30.832;2022-09-09T02:39:05;100438.17;;;7.93;69.29
42003;BME280;27693;50.506;30.832;2022-09-09T02:40:11;100442.46;;;7.96;69.19
42003;BME280;27693;50.506;30.832;2022-09-09T02:41:19;100449.41;;;7.94;69.52
42003;BME280;27693;50.506;30.832;2022-09-09T02:42:22;100452.10;;;7.89;69.37
42003;BME280;27693;50.506;30.832;2022-09-09T02:43:25;100452.94;;;7.90;69.65
42003;BME280;27693;50.506;30.832;2022-09-09T02:44:27;100450.34;;;7.91;69.63
42003;BME280;27693;50.506;30.832;2022-09-09T02:45:47;100445.16;;;7.91;69.38
42003;BME280;27693;50.506;30.832;2022-09-09T02:47:04;100451.17;;;7.92;69.43
42003;BME280;27693;50.506;30.832;2022-09-09T02:51:08;100446.09;;;7.87;69.50
42003;BME280;27693;50.506;30.832;2022-09-09T02:52:26;100446.98;;;7.86;69.71
42003;BME280;27693;50.506;30.832;2022-09-09T02:54:39;100448.91;;;7.78;70.10
42003;BME280;27693;50.506;30.832;2022-09-09T02:55:49;100442.86;;;7.77;70.10
42003;BME280;27693;50.506;30.832;2022-09-09T02:56:54;100441.23;;;7.73;69.98
42003;BME280;27693;50.506;30.832;2022-09-09T02:57:59;100443.00;;;7.71;70.11
42003;BME280;27693;50.506;30.832;2022-09-09T02:59:04;100447.40;;;7.67;70.19
42003;BME280;27693;50.506;30.832;2022-09-09T03:00:09;100436.12;;;7.70;70.13
42003;BME280;27693;50.506;30.832;2022-09-09T03:01:13;100439.53;;;7.72;69.81
42003;BME280;27693;50.506;30.832;2022-09-09T03:02:16;100437.68;;;7.77;69.60
42003;BME280;27693;50.506;30.832;2022-09-09T03:03:20;100435.09;;;7.77;69.54
42003;BME280;27693;50.506;30.832;2022-09-09T03:04:23;100441.16;;;7.76;69.69
42003;BME280;27693;50.506;30.832;2022-09-09T03:05:26;100446.28;;;7.79;69.68
42003;BME280;27693;50.506;30.832;2022-09-09T03:06:29;100445.36;;;7.82;69.31
42003;BME280;27693;50.506;30.832;2022-09-09T03:07:33;100449.75;;;7.78;69.43
42003;BME280;27693;50.506;30.832;2022-09-09T03:08:36;100447.98;;;7.80;69.31
42003;BME280;27693;50.506;30.832;2022-09-09T03:09:38;100446.42;;;7.73;69.51
42003;BME280;27693;50.506;30.832;2022-09-09T03:10:41;100448.23;;;7.70;69.58
42003;BME280;27693;50.506;30.832;2022-09-09T03:11:43;100441.30;;;7.70;69.32
42003;BME280;27693;50.506;30.832;2022-09-09T03:12:46;100441.38;;;7.67;69.73
42003;BME280;27693;50.506;30.832;2022-09-09T03:13:48;100444.77;;;7.69;69.68
42003;BME280;27693;50.506;30.832;2022-09-09T03:14:49;100448.27;;;7.68;69.78
42003;BME280;27693;50.506;30.832;2022-09-09T03:15:52;100448.23;;;7.70;69.75
42003;BME280;27693;50.506;30.832;2022-09-09T03:16:55;100447.44;;;7.66;69.94
42003;BME280;27693;50.506;30.832;2022-09-09T03:17:58;100450.91;;;7.65;69.87
42003;BME280;27693;50.506;30.832;2022-09-09T03:19:01;100445.73;;;7.65;69.75
42003;BME280;27693;50.506;30.832;2022-09-09T03:20:04;100450.17;;;7.60;70.16
42003;BME280;27693;50.506;30.832;2022-09-09T03:21:06;100455.44;;;7.55;70.35
42003;BME280;27693;50.506;30.832;2022-09-09T03:22:10;100455.40;;;7.57;70.21
42003;BME280;27693;50.506;30.832;2022-09-09T03:23:14;100455.40;;;7.57;70.14
42003;BME280;27693;50.506;30.832;2022-09-09T03:24:18;100461.55;;;7.53;70.15
42003;BME280;27693;50.506;30.832;2022-09-09T03:25:20;100455.53;;;7.50;70.32
42003;BME280;27693;50.506;30.832;2022-09-09T03:26:24;100466.68;;;7.54;70.32
42003;BME280;27693;50.506;30.832;2022-09-09T03:27:27;100455.40;;;7.57;70.11
42003;BME280;27693;50.506;30.832;2022-09-09T03:28:30;100467.42;;;7.59;70.01
42003;BME280;27693;50.506;30.832;2022-09-09T03:29:33;100468.30;;;7.60;69.92
42003;BME280;27693;50.506;30.832;2022-09-09T03:30:36;100469.12;;;7.62;69.84
42003;BME280;27693;50.506;30.832;2022-09-09T03:31:39;100462.42;;;7.51;70.08
42003;BME280;27693;50.506;30.832;2022-09-09T03:32:41;100461.72;;;7.43;70.19
42003;BME280;27693;50.506;30.832;2022-09-09T03:33:45;100461.72;;;7.43;70.19
42003;BME280;27693;50.506;30.832;2022-09-09T03:34:49;100475.42;;;7.48;70.33
42003;BME280;27693;50.506;30.832;2022-09-09T03:35:52;100465.97;;;7.47;70.30
42003;BME280;27693;50.506;30.832;2022-09-09T03:36:55;100468.70;;;7.41;70.64
42003;BME280;27693;50.506;30.832;2022-09-09T03:37:57;100467.03;;;7.37;70.60
42003;BME280;27693;50.506;30.832;2022-09-09T03:39:01;100468.78;;;7.37;70.87
42003;BME280;27693;50.506;30.832;2022-09-09T03:40:05;100473.09;;;7.36;70.95
42003;BME280;27693;50.506;30.832;2022-09-09T03:41:07;100469.70;;;7.34;71.12
42003;BME280;27693;50.506;30.832;2022-09-09T03:42:12;100465.36;;;7.34;70.97
42003;BME280;27693;50.506;30.832;2022-09-09T03:43:15;100468.83;;;7.33;71.08
42003;BME280;27693;50.506;30.832;2022-09-09T03:44:17;100463.78;;;7.27;71.53
42003;BME280;27693;50.506;30.832;2022-09-09T03:45:19;100461.90;;;7.35;71.40
42003;BME280;27693;50.506;30.832;2022-09-09T03:46:24;100461.90;;;7.35;71.40
42003;BME280;27693;50.506;30.832;2022-09-09T03:47:26;100458.26;;;7.44;71.07
42003;BME280;27693;50.506;30.832;2022-09-09T03:48:30;100465.05;;;7.50;70.78
42003;BME280;27693;50.506;30.832;2022-09-09T03:49:33;100470.94;;;7.57;70.56
42003;BME280;27693;50.506;30.832;2022-09-09T03:50:36;100470.80;;;7.63;70.35
42003;BME280;27693;50.506;30.832;2022-09-09T03:51:38;100474.17;;;7.68;70.23
42003;BME280;27693;50.506;30.832;2022-09-09T03:52:42;100471.59;;;7.66;69.96
42003;BME280;27693;50.506;30.832;2022-09-09T03:53:46;100480.23;;;7.67;69.91
42003;BME280;27693;50.506;30.832;2022-09-09T03:54:49;100470.79;;;7.64;70.04
42003;BME280;27693;50.506;30.832;2022-09-09T03:55:53;100475.93;;;7.66;70.11
42003;BME280;27693;50.506;30.832;2022-09-09T03:56:57;100471.63;;;7.65;69.99
42003;BME280;27693;50.506;30.832;2022-09-09T03:58:00;100470.61;;;7.72;69.84
42003;BME280;27693;50.506;30.832;2022-09-09T03:59:03;100470.66;;;7.69;69.78
42003;BME280;27693;50.506;30.832;2022-09-09T04:00:09;100474.22;;;7.65;70.03
42003;BME280;27693;50.506;30.832;2022-09-09T04:01:18;100475.14;;;7.62;70.10
42003;BME280;27693;50.506;30.832;2022-09-09T04:02:21;100475.14;;;7.62;70.10
42003;BME280;27693;50.506;30.832;2022-09-09T04:03:25;100481.16;;;7.63;70.15
42003;BME280;27693;50.506;30.832;2022-09-09T04:04:29;100483.74;;;7.64;70.17
42003;BME280;27693;50.506;30.832;2022-09-09T04:05:31;100483.62;;;7.69;70.01
42003;BME280;27693;50.506;30.832;2022-09-09T04:06:34;100488.66;;;7.77;69.86
42003;BME280;27693;50.506;30.832;2022-09-09T04:07:36;100480.70;;;7.84;69.47
42003;BME280;27693;50.506;30.832;2022-09-09T04:08:39;100477.17;;;7.89;69.46
42003;BME280;27693;50.506;30.832;2022-09-09T04:09:41;100474.53;;;7.90;69.41
42003;BME280;27693;50.506;30.832;2022-09-09T04:10:45;100474.73;;;7.81;69.42
42003;BME280;27693;50.506;30.832;2022-09-09T04:11:48;100473.95;;;7.77;69.67
42003;BME280;27693;50.506;30.832;2022-09-09T04:12:50;100478.29;;;7.77;69.77
42003;BME280;27693;50.506;30.832;2022-09-09T04:13:52;100484.31;;;7.77;69.85
42003;BME280;27693;50.506;30.832;2022-09-09T04:14:55;100487.78;;;7.76;69.77
42003;BME280;27693;50.506;30.832;2022-09-09T04:15:58;100477.55;;;7.70;69.96
42003;BME280;27693;50.506;30.832;2022-09-09T04:17:01;100486.94;;;7.76;69.90
42003;BME280;27693;50.506;30.832;2022-09-09T04:18:03;100483.39;;;7.80;69.45
42003;BME280;27693;50.506;30.832;2022-09-09T04:19:05;100473.06;;;7.78;69.77
42003;BME280;27693;50.506;30.832;2022-09-09T04:20:08;100473.06;;;7.78;69.77
42003;BME280;27693;50.506;30.832;2022-09-09T04:21:11;100479.91;;;7.82;69.88
42003;BME280;27693;50.506;30.832;2022-09-09T04:22:14;100479.95;;;7.79;69.64
42003;BME280;27693;50.506;30.832;2022-09-09T04:23:16;100480.00;;;7.78;69.93
42003;BME280;27693;50.506;30.832;2022-09-09T04:24:19;100480.84;;;7.78;70.13
42003;BME280;27693;50.506;30.832;2022-09-09T04:25:20;100486.99;;;7.73;70.22
42003;BME280;27693;50.506;30.832;2022-09-09T04:26:23;100483.52;;;7.74;70.15
42003;BME280;27693;50.506;30.832;2022-09-09T04:27:27;100481.03;;;7.69;70.40
42003;BME280;27693;50.506;30.832;2022-09-09T04:28:32;100482.73;;;7.70;70.88
42003;BME280;27693;50.506;30.832;2022-09-09T04:29:34;100479.35;;;7.68;70.64
42003;BME280;27693;50.506;30.832;2022-09-09T04:30:37;100468.85;;;7.74;70.46
42003;BME280;27693;50.506;30.832;2022-09-09T04:31:40;100465.23;;;7.81;70.42
42003;BME280;27693;50.506;30.832;2022-09-09T04:32:42;100471.22;;;7.83;70.42
42003;BME280;27693;50.506;30.832;2022-09-09T04:33:44;100469.55;;;7.81;70.15
42003;BME280;27693;50.506;30.832;2022-09-09T04:34:46;100471.44;;;7.74;70.86
42003;BME280;27693;50.506;30.832;2022-09-09T04:35:50;100472.19;;;7.79;70.65
42003;BME280;27693;50.506;30.832;2022-09-09T04:36:53;100477.42;;;7.76;70.61
42003;BME280;27693;50.506;30.832;2022-09-09T04:37:55;100474.81;;;7.78;70.69
42003;BME280;27693;50.506;30.832;2022-09-09T04:38:57;100480.80;;;7.80;70.54
42003;BME280;27693;50.506;30.832;2022-09-09T04:40:01;100481.66;;;7.80;70.84
42003;BME280;27693;50.506;30.832;2022-09-09T04:41:05;100477.23;;;7.86;70.56
42003;BME280;27693;50.506;30.832;2022-09-09T04:42:08;100483.15;;;7.91;70.37
42003;BME280;27693;50.506;30.832;2022-09-09T04:43:11;100484.17;;;7.83;70.83
42003;BME280;27693;50.506;30.832;2022-09-09T04:44:16;100489.34;;;7.83;70.89
42003;BME280;27693;50.506;30.832;2022-09-09T04:45:18;100491.89;;;7.87;70.59
42003;BME280;27693;50.506;30.832;2022-09-09T04:46:21;100495.45;;;7.82;70.76
42003;BME280;27693;50.506;30.832;2022-09-09T04:47:24;100490.22;;;7.84;70.92
42003;BME280;27693;50.506;30.832;2022-09-09T04:48:26;100495.45;;;7.82;71.07
42003;BME280;27693;50.506;30.832;2022-09-09T04:49:28;100499.80;;;7.80;71.02
42003;BME280;27693;50.506;30.832;2022-09-09T04:50:30;100506.55;;;7.88;70.93
42003;BME280;27693;50.506;30.832;2022-09-09T04:51:33;100496.10;;;7.91;70.60
42003;BME280;27693;50.506;30.832;2022-09-09T04:52:35;100497.02;;;7.88;70.71
42003;BME280;27693;50.506;30.832;2022-09-09T04:53:37;100494.28;;;7.96;70.81
42003;BME280;27693;50.506;30.832;2022-09-09T04:54:39;100496.69;;;8.04;70.25
42003;BME280;27693;50.506;30.832;2022-09-09T04:55:41;100494.78;;;8.12;70.19
42003;BME280;27693;50.506;30.832;2022-09-09T04:56:44;100499.86;;;8.17;70.00
42003;BME280;27693;50.506;30.832;2022-09-09T04:57:46;100504.85;;;8.24;69.93
42003;BME280;27693;50.506;30.832;2022-09-09T04:58:49;100503.78;;;8.33;69.92
42003;BME280;27693;50.506;30.832;2022-09-09T04:59:53;100506.22;;;8.39;69.57
42003;BME280;27693;50.506;30.832;2022-09-09T05:01:04;100501.23;;;8.31;69.15
42003;BME280;27693;50.506;30.832;2022-09-09T05:02:06;100504.03;;;8.22;69.80
42003;BME280;27693;50.506;30.832;2022-09-09T05:03:10;100511.02;;;8.20;69.82
42003;BME280;27693;50.506;30.832;2022-09-09T05:04:12;100502.30;;;8.23;69.64
42003;BME280;27693;50.506;30.832;2022-09-09T05:05:14;100509.11;;;8.27;69.25
42003;BME280;27693;50.506;30.832;2022-09-09T05:06:18;100506.38;;;8.33;68.74
42003;BME280;27693;50.506;30.832;2022-09-09T05:07:22;100511.51;;;8.35;69.25
42003;BME280;27693;50.506;30.832;2022-09-09T05:08:24;100513.31;;;8.33;69.13
42003;BME280;27693;50.506;30.832;2022-09-09T05:09:26;100510.82;;;8.28;69.48
42003;BME280;27693;50.506;30.832;2022-09-09T05:10:30;100506.46;;;8.30;69.39
42003;BME280;27693;50.506;30.832;2022-09-09T05:11:34;100508.96;;;8.33;69.39
42003;BME280;27693;50.506;30.832;2022-09-09T05:12:38;100510.67;;;8.34;69.52
42003;BME280;27693;50.506;30.832;2022-09-09T05:13:40;100510.67;;;8.34;69.02
42003;BME280;27693;50.506;30.832;2022-09-09T05:14:43;100516.84;;;8.28;69.62
42003;BME280;27693;50.506;30.832;2022-09-09T05:15:53;100513.45;;;8.26;69.66
42003;BME280;27693;50.506;30.832;2022-09-09T05:16:57;100519.42;;;8.30;69.50
42003;BME280;27693;50.506;30.832;2022-09-09T05:18:00;100520.98;;;8.37;69.02
42003;BME280;27693;50.506;30.832;2022-09-09T05:19:04;100522.52;;;8.44;68.85
42003;BME280;27693;50.506;30.832;2022-09-09T05:20:14;100517.48;;;8.38;69.35
42003;BME280;27693;50.506;30.832;2022-09-09T05:21:20;100520.89;;;8.40;69.54
42003;BME280;27693;50.506;30.832;2022-09-09T05:22:22;100519.00;;;8.49;68.79
42003;BME280;27693;50.506;30.832;2022-09-09T05:23:26;100513.73;;;8.52;68.58
42003;BME280;27693;50.506;30.832;2022-09-09T05:24:30;100511.89;;;8.57;68.43
42003;BME280;27693;50.506;30.832;2022-09-09T05:25:34;100517.08;;;8.57;68.99
42003;BME280;27693;50.506;30.832;2022-09-09T05:26:36;100523.11;;;8.57;69.09
42003;BME280;27693;50.506;30.832;2022-09-09T05:27:39;100506.55;;;8.63;69.11
42003;BME280;27693;50.506;30.832;2022-09-09T05:28:41;100506.55;;;8.63;69.11
42003;BME280;27693;50.506;30.832;2022-09-09T05:29:43;100502.14;;;8.67;68.66
42003;BME280;27693;50.506;30.832;2022-09-09T05:30:45;100498.66;;;8.68;68.71
42003;BME280;27693;50.506;30.832;2022-09-09T05:31:47;100493.47;;;8.68;68.94
42003;BME280;27693;50.506;30.832;2022-09-09T05:32:52;100497.78;;;8.67;68.94
42003;BME280;27693;50.506;30.832;2022-09-09T05:33:54;100495.29;;;8.64;69.16
42003;BME280;27693;50.506;30.832;2022-09-09T05:34:56;100491.83;;;8.63;69.12
42003;BME280;27693;50.506;30.832;2022-09-09T05:36:01;100493.59;;;8.61;69.30
42003;BME280;27693;50.506;30.832;2022-09-09T05:37:03;100486.64;;;8.63;69.05
42003;BME280;27693;50.506;30.832;2022-09-09T05:38:06;100494.24;;;8.71;68.98
42003;BME280;27693;50.506;30.832;2022-09-09T05:39:08;100499.22;;;8.79;69.08
42003;BME280;27693;50.506;30.832;2022-09-09T05:40:12;100493.98;;;8.81;68.89
42003;BME280;27693;50.506;30.832;2022-09-09T05:41:15;100498.23;;;8.83;68.49
42003;BME280;27693;50.506;30.832;2022-09-09T05:42:18;100491.11;;;8.91;68.51
42003;BME280;27693;50.506;30.832;2022-09-09T05:43:20;100497.00;;;8.98;68.23
42003;BME280;27693;50.506;30.832;2022-09-09T05:44:22;100503.92;;;8.98;68.10
42003;BME280;27693;50.506;30.832;2022-09-09T05:45:24;100497.96;;;8.94;68.81
42003;BME280;27693;50.506;30.832;2022-09-09T05:46:27;100502.20;;;8.98;68.02
42003;BME280;27693;50.506;30.832;2022-09-09T05:47:30;100502.09;;;9.01;68.27
42003;BME280;27693;50.506;30.832;2022-09-09T05:48:36;100512.31;;;9.07;68.10
42003;BME280;27693;50.506;30.832;2022-09-09T05:49:39;100506.16;;;9.11;67.67
42003;BME280;27693;50.506;30.832;2022-09-09T05:50:42;100516.50;;;9.13;67.96
42003;BME280;27693;50.506;30.832;2022-09-09T05:51:44;100505.27;;;9.13;68.01
42003;BME280;27693;50.506;30.832;2022-09-09T05:52:48;100498.27;;;9.15;68.34
42003;BME280;27693;50.506;30.832;2022-09-09T05:53:50;100505.27;;;9.13;68.46
42003;BME280;27693;50.506;30.832;2022-09-09T05:54:53;100498.20;;;9.18;68.21
42003;BME280;27693;50.506;30.832;2022-09-09T05:56:00;100499.81;;;9.22;68.05
42003;BME280;27693;50.506;30.832;2022-09-09T05:57:03;100494.72;;;9.19;67.89
42003;BME280;27693;50.506;30.832;2022-09-09T05:58:07;100491.97;;;9.23;67.88
42003;BME280;27693;50.506;30.832;2022-09-09T05:59:10;100495.44;;;9.24;67.91
42003;BME280;27693;50.506;30.832;2022-09-09T06:00:14;100498.84;;;9.26;67.81
42003;BME280;27693;50.506;30.832;2022-09-09T06:01:29;100506.48;;;9.31;67.91
42003;BME280;27693;50.506;30.832;2022-09-09T06:02:32;100501.09;;;9.38;67.44
42003;BME280;27693;50.506;30.832;2022-09-09T06:03:38;100499.16;;;9.45;67.80
42003;BME280;27693;50.506;30.832;2022-09-09T06:04:41;100506.95;;;9.45;67.68
42003;BME280;27693;50.506;30.832;2022-09-09T06:05:44;100504.22;;;9.50;67.33
42003;BME280;27693;50.506;30.832;2022-09-09T06:06:46;100506.64;;;9.56;67.27
42003;BME280;27693;50.506;30.832;2022-09-09T06:07:52;100501.27;;;9.62;67.36
42003;BME280;27693;50.506;30.832;2022-09-09T06:08:56;100509.80;;;9.67;67.34
42003;BME280;27693;50.506;30.832;2022-09-09T06:10:00;100509.56;;;9.75;66.89
42003;BME280;27693;50.506;30.832;2022-09-09T06:11:04;100511.84;;;9.86;66.48
42003;BME280;27693;50.506;30.832;2022-09-09T06:12:08;100515.01;;;9.96;65.79
42003;BME280;27693;50.506;30.832;2022-09-09T06:13:10;100513.25;;;9.96;66.14
42003;BME280;27693;50.506;30.832;2022-09-09T06:14:13;100518.37;;;9.99;65.97
42003;BME280;27693;50.506;30.832;2022-09-09T06:15:16;100513.98;;;10.01;65.84
42003;BME280;27693;50.506;30.832;2022-09-09T06:16:21;100525.08;;;10.06;65.96
42003;BME280;27693;50.506;30.832;2022-09-09T06:17:23;100514.48;;;10.13;65.62
42003;BME280;27693;50.506;30.832;2022-09-09T06:18:26;100519.49;;;10.19;65.66
42003;BME280;27693;50.506;30.832;2022-09-09T06:19:29;100518.34;;;10.28;65.41
42003;BME280;27693;50.506;30.832;2022-09-09T06:20:32;100515.72;;;10.29;64.59
42003;BME280;27693;50.506;30.832;2022-09-09T06:21:36;100518.34;;;10.28;64.48
42003;BME280;27693;50.506;30.832;2022-09-09T06:22:40;100522.59;;;10.30;65.01
42003;BME280;27693;50.506;30.832;2022-09-09T06:23:43;100529.42;;;10.34;65.34
42003;BME280;27693;50.506;30.832;2022-09-09T06:24:45;100530.06;;;10.43;64.83
42003;BME280;27693;50.506;30.832;2022-09-09T06:25:47;100521.94;;;10.52;64.35